MMML/MXL METAR and TAF weather

Enter ICAO airport designator
Station Type Date Time Source
MMML METAR 2020/01/24 20:50 UTC NOAA

MMML 242050Z 00000KT 10SM BKN200 24/M01 A2996 RMK SLP146 52027 990 8/008


Station Type Date Time Source
MMML Decoded METAR 2020/01/24 20:50 UTC NOAA

Mexicali International Airport , Mexico (MMML) 32-38N 117-00W
Jan 24, 2020 - 03:50 PM EST / 2020.01.24 2050 UTC
Wind: Calm:0
Visibility: 10 mile(s):0
Sky conditions: mostly cloudy
Temperature: 75 F (24 C)
Dew Point: 30 F (-1 C)
Relative Humidity: 19%
Pressure (altimeter): 29.96 in. Hg (1014 hPa)
Pressure tendency: 0.08 inches (2.7 hPa) higher than three hours ago
ob: MMML 242050Z 00000KT 10SM BKN200 24/M01 A2996 RMK SLP146 52027 990 8/008
cycle: 21

Station Type Date Time Source
MMML TAF 2020/01/24 18:09 UTC NOAA

TAF MMML 241706Z 2418/2518 29006KT P6SM BKN200
FM251200 20005KT P6SM BKN200

Example: see airport list